Terminal Aerodrome Forecast
Issued by NWS

Home | Current Version | Previous Version | Graphics & Text | Print | Product List | Glossary On
Versions: 1 2 3 4 5 6 7 8 9 10 11 12 13 14 15 16 17 18 19 20 21 22 23
000
FTUS43 KBIS 251436 AAB
TAFDIK
TAF AMD
KDIK 251436Z 2515/2612 06008KT 4SM -RA BR OVC035
      TEMPO 2515/2517 2SM -RA BR OVC020
     FM252200 17008KT P6SM VCSH BKN040=

USA.gov is the U.S. government's official web portal to all federal, state and local government web resources and services.